createdAt,value
2019-02-28T00:00:24.200Z,65.60
2019-02-28T00:02:53.927Z,65.10
2019-02-28T00:05:22.916Z,64.20
2019-02-28T00:07:51.396Z,63.50
2019-02-28T00:10:19.911Z,62.50
2019-02-28T00:12:48.738Z,62.40
2019-02-28T00:15:17.291Z,62.80
2019-02-28T00:17:45.803Z,63.00
2019-02-28T00:20:14.289Z,62.50
2019-02-28T00:22:42.786Z,62.00
2019-02-28T00:25:11.261Z,61.40
2019-02-28T00:27:39.771Z,62.40
2019-02-28T00:30:11.562Z,62.70
2019-02-28T00:32:40.134Z,62.10
2019-02-28T00:35:12.994Z,61.00
2019-02-28T00:37:39.227Z,61.10
2019-02-28T00:40:09.240Z,60.50
2019-02-28T00:42:37.848Z,60.80
2019-02-28T00:45:09.566Z,61.00
2019-02-28T00:47:38.276Z,61.00
2019-02-28T00:50:07.304Z,60.30
2019-02-28T00:52:36.121Z,60.00
2019-02-28T00:55:07.154Z,60.10
2019-02-28T00:57:35.647Z,59.60
2019-02-28T01:00:06.269Z,59.80
2019-02-28T01:02:34.928Z,59.90
2019-02-28T01:05:05.039Z,59.60
2019-02-28T01:07:34.061Z,59.40
2019-02-28T01:10:04.560Z,58.20
2019-02-28T01:12:32.687Z,57.50
2019-02-28T01:15:01.414Z,58.00
2019-02-28T01:17:29.876Z,58.50
2019-02-28T01:19:58.392Z,59.30
2019-02-28T01:22:28.013Z,59.60
2019-02-28T01:24:56.669Z,59.70
2019-02-28T01:27:25.158Z,60.00
2019-02-28T01:29:53.650Z,60.20
2019-02-28T01:32:22.141Z,61.10
2019-02-28T01:34:50.718Z,61.80
2019-02-28T01:37:20.936Z,62.00
2019-02-28T01:39:49.423Z,62.40
2019-02-28T01:42:19.946Z,63.00
2019-02-28T01:44:48.106Z,63.90
2019-02-28T01:47:19.912Z,64.60
2019-02-28T01:49:46.697Z,64.50
2019-02-28T01:52:15.171Z,64.60
2019-02-28T01:54:43.665Z,65.00
2019-02-28T01:57:12.177Z,64.80
2019-02-28T01:59:40.706Z,64.70
2019-02-28T02:02:09.178Z,64.70
2019-02-28T02:04:37.745Z,64.70
2019-02-28T02:07:06.226Z,63.30
2019-02-28T02:09:34.728Z,62.20
2019-02-28T02:12:04.843Z,60.30
2019-02-28T02:14:33.400Z,60.40
2019-02-28T02:17:02.013Z,60.10
2019-02-28T02:19:30.559Z,60.20
2019-02-28T02:21:59.041Z,61.30
2019-02-28T02:24:27.981Z,62.10
2019-02-28T02:26:57.436Z,62.40
2019-02-28T02:29:25.958Z,62.20
2019-02-28T02:31:54.455Z,62.40
2019-02-28T02:34:24.352Z,61.30
2019-02-28T02:36:54.485Z,60.80
2019-02-28T02:39:23.060Z,60.40
2019-02-28T02:41:51.548Z,61.40
2019-02-28T02:44:20.055Z,60.80
2019-02-28T02:46:55.572Z,60.10
2019-02-28T02:49:20.026Z,59.90
2019-02-28T02:51:50.498Z,59.60
2019-02-28T02:54:20.222Z,60.70
2019-02-28T02:56:48.898Z,59.20
2019-02-28T02:59:17.401Z,59.70
2019-02-28T03:01:45.878Z,59.90
2019-02-28T03:04:21.736Z,60.00
2019-02-28T03:06:45.885Z,59.50
2019-02-28T03:09:14.703Z,59.80
2019-02-28T03:11:43.187Z,61.00
2019-02-28T03:14:16.510Z,61.00
2019-02-28T03:16:41.835Z,61.20
2019-02-28T03:19:10.316Z,61.60
2019-02-28T03:21:38.797Z,62.40
2019-02-28T03:24:07.285Z,63.50
2019-02-28T03:26:41.545Z,64.10
2019-02-28T03:29:07.870Z,64.80
2019-02-28T03:31:36.145Z,65.30
2019-02-28T03:34:13.043Z,65.60
2019-02-28T03:36:34.764Z,66.20
2019-02-28T03:39:04.715Z,67.70
2019-02-28T03:41:33.215Z,68.80
2019-02-28T03:44:01.811Z,69.90
2019-02-28T03:46:30.303Z,71.20
2019-02-28T03:48:58.801Z,72.60
2019-02-28T03:51:28.752Z,73.40
2019-02-28T03:53:57.403Z,74.20
2019-02-28T03:56:25.879Z,74.90
2019-02-28T03:58:54.372Z,75.50
2019-02-28T04:01:22.997Z,76.20
2019-02-28T04:03:51.483Z,76.50
2019-02-28T04:06:20.018Z,76.30
2019-02-28T04:08:48.494Z,76.60
2019-02-28T04:11:16.991Z,76.60
2019-02-28T04:13:45.523Z,75.80
2019-02-28T04:16:14.020Z,75.80
2019-02-28T04:18:46.070Z,75.90
2019-02-28T04:21:12.627Z,76.10
2019-02-28T04:23:41.175Z,76.00
2019-02-28T04:26:09.646Z,76.10
2019-02-28T04:28:38.116Z,76.70
2019-02-28T04:31:06.624Z,77.40
2019-02-28T04:33:39.088Z,78.10
2019-02-28T04:36:05.381Z,78.60
2019-02-28T04:38:33.857Z,79.50
2019-02-28T04:41:02.476Z,79.90
2019-02-28T04:43:31.226Z,80.20
2019-02-28T04:45:59.711Z,80.50
2019-02-28T04:48:28.221Z,80.70
2019-02-28T04:50:56.717Z,81.00
2019-02-28T04:53:25.224Z,81.40
2019-02-28T04:55:53.735Z,81.70
2019-02-28T04:58:24.918Z,81.70
2019-02-28T05:00:52.399Z,81.40
2019-02-28T05:03:20.906Z,81.20
2019-02-28T05:05:49.388Z,81.30
2019-02-28T05:08:17.941Z,81.80
2019-02-28T05:10:46.490Z,81.80
2019-02-28T05:13:16.799Z,81.60
2019-02-28T05:15:45.272Z,81.20
2019-02-28T05:18:13.839Z,81.30
2019-02-28T05:20:45.888Z,81.10
2019-02-28T05:23:12.467Z,80.70
2019-02-28T05:25:40.958Z,80.50
2019-02-28T05:28:09.504Z,80.30
2019-02-28T05:30:37.980Z,80.80
2019-02-28T05:33:07.376Z,81.00
2019-02-28T05:35:35.963Z,81.30
2019-02-28T05:38:04.501Z,81.10
2019-02-28T05:40:32.978Z,81.50
2019-02-28T05:43:01.490Z,81.60
2019-02-28T05:45:29.973Z,81.70
2019-02-28T05:47:58.460Z,81.60
2019-02-28T05:50:26.954Z,81.50
2019-02-28T05:52:55.447Z,81.80
2019-02-28T05:55:25.531Z,82.00
2019-02-28T05:57:54.317Z,81.80
2019-02-28T06:00:24.586Z,81.80
2019-02-28T06:02:57.656Z,81.10
2019-02-28T06:05:23.229Z,81.40
2019-02-28T06:07:51.719Z,81.20
2019-02-28T06:10:23.352Z,81.70
2019-02-28T06:12:50.349Z,81.80
2019-02-28T06:15:18.838Z,81.60
2019-02-28T06:17:47.325Z,81.90
2019-02-28T06:20:16.945Z,82.00
2019-02-28T06:22:45.959Z,82.20
2019-02-28T06:25:22.163Z,82.00
2019-02-28T06:27:48.909Z,82.00
2019-02-28T06:30:16.102Z,82.20
2019-02-28T06:32:44.586Z,81.30
2019-02-28T06:35:16.074Z,81.10
2019-02-28T06:37:43.224Z,80.80
2019-02-28T06:40:13.773Z,80.50
2019-02-28T06:42:43.529Z,80.40
2019-02-28T06:45:17.473Z,80.00
2019-02-28T06:47:49.578Z,79.60
2019-02-28T06:50:16.439Z,79.30
2019-02-28T06:52:44.936Z,79.40
2019-02-28T06:55:28.799Z,79.60
2019-02-28T06:57:58.782Z,80.10
2019-02-28T07:00:27.484Z,79.80
2019-02-28T07:02:56.245Z,79.50
2019-02-28T07:05:25.949Z,79.10
2019-02-28T07:07:54.625Z,78.70
2019-02-28T07:10:23.107Z,78.20
2019-02-28T07:12:51.609Z,77.80
2019-02-28T07:15:23.762Z,77.30
2019-02-28T07:17:50.280Z,77.40
2019-02-28T07:20:19.700Z,77.50
2019-02-28T07:22:48.214Z,77.00
2019-02-28T07:25:16.690Z,77.20
2019-02-28T07:27:45.262Z,77.40
2019-02-28T07:30:19.442Z,76.70
2019-02-28T07:32:48.153Z,76.30
2019-02-28T07:35:16.698Z,75.40
2019-02-28T07:37:45.509Z,73.30
2019-02-28T07:40:17.881Z,70.30
2019-02-28T07:42:46.867Z,69.60
2019-02-28T07:45:17.197Z,68.90
2019-02-28T07:47:51.783Z,67.20
2019-02-28T07:50:16.439Z,67.00
2019-02-28T07:52:44.943Z,66.50
2019-02-28T07:55:18.847Z,67.10
2019-02-28T07:57:51.126Z,66.20
2019-02-28T08:00:24.374Z,65.20
2019-02-28T08:02:52.870Z,64.70
2019-02-28T08:05:21.543Z,64.70
2019-02-28T08:07:52.657Z,64.40
2019-02-28T08:10:31.674Z,64.20
2019-02-28T08:13:03.118Z,63.50
2019-02-28T08:15:30.713Z,62.60
2019-02-28T08:17:59.209Z,62.60
2019-02-28T08:20:30.705Z,62.60
2019-02-28T08:22:57.838Z,62.90
2019-02-28T08:25:26.331Z,62.60
2019-02-28T08:27:59.076Z,62.30
2019-02-28T08:30:34.734Z,62.00
2019-02-28T08:33:03.234Z,62.10
2019-02-28T08:35:34.927Z,62.20
2019-02-28T08:38:01.855Z,62.10
2019-02-28T08:40:30.336Z,62.20
2019-02-28T08:42:58.823Z,62.20
2019-02-28T08:45:32.728Z,62.20
2019-02-28T08:47:57.519Z,62.20
2019-02-28T08:50:26.658Z,61.80
2019-02-28T08:52:58.417Z,61.60
2019-02-28T08:55:29.041Z,61.40
2019-02-28T08:58:04.054Z,60.80
2019-02-28T09:00:31.221Z,60.20
2019-02-28T09:02:57.338Z,59.30
2019-02-28T09:05:28.989Z,58.00
2019-02-28T09:07:56.023Z,56.60
2019-02-28T09:10:25.489Z,55.30
2019-02-28T09:12:53.981Z,54.80
2019-02-28T09:15:22.552Z,53.70
2019-02-28T09:17:51.567Z,52.30
2019-02-28T09:20:20.048Z,51.50
2019-02-28T09:22:49.860Z,50.10
2019-02-28T09:25:23.080Z,49.50
2019-02-28T09:27:51.787Z,49.40
2019-02-28T09:30:32.160Z,48.40
2019-02-28T09:33:00.661Z,46.70
2019-02-28T09:35:29.163Z,45.80
2019-02-28T09:37:57.646Z,45.70
2019-02-28T09:40:29.507Z,44.70
2019-02-28T09:42:56.311Z,44.10
2019-02-28T09:45:26.759Z,44.60
2019-02-28T09:48:00.813Z,45.00
2019-02-28T09:50:25.536Z,45.00
2019-02-28T09:52:54.019Z,45.40
2019-02-28T09:55:22.518Z,44.40
2019-02-28T09:57:54.729Z,44.50
2019-02-28T10:00:22.357Z,44.00
2019-02-28T10:02:52.967Z,43.70
2019-02-28T10:05:21.056Z,44.60
2019-02-28T10:07:49.536Z,45.20
2019-02-28T10:10:22.056Z,44.50
2019-02-28T10:12:50.708Z,44.30
2019-02-28T10:15:20.660Z,44.00
2019-02-28T10:17:49.153Z,44.00
2019-02-28T10:20:40.423Z,44.10
2019-02-28T10:23:08.907Z,44.30
2019-02-28T10:25:43.299Z,44.30
2019-02-28T10:28:07.539Z,43.90
2019-02-28T10:30:36.041Z,43.70
2019-02-28T10:33:04.592Z,43.90
2019-02-28T10:35:33.544Z,42.50
2019-02-28T10:38:03.246Z,42.30
2019-02-28T10:40:31.790Z,41.70
2019-02-28T10:43:00.311Z,40.00
2019-02-28T10:45:28.961Z,40.00
2019-02-28T10:48:02.951Z,39.50
2019-02-28T10:50:35.388Z,38.40
2019-02-28T10:53:05.756Z,36.50
2019-02-28T10:55:34.696Z,37.10
2019-02-28T10:58:03.363Z,37.40
2019-02-28T11:00:43.155Z,36.90
2019-02-28T11:03:11.815Z,37.00
2019-02-28T11:05:42.557Z,37.60
2019-02-28T11:08:19.158Z,37.10
2019-02-28T11:10:47.451Z,37.80
2019-02-28T11:13:20.198Z,37.30
2019-02-28T11:15:49.379Z,37.20
2019-02-28T11:18:17.959Z,37.70
2019-02-28T11:20:46.552Z,37.30
2019-02-28T11:23:15.911Z,36.80
2019-02-28T11:25:44.489Z,36.00
2019-02-28T11:28:13.574Z,36.00
2019-02-28T11:30:44.728Z,36.40
2019-02-28T11:33:12.465Z,34.00
2019-02-28T11:35:40.943Z,34.30
2019-02-28T11:38:09.468Z,35.10
2019-02-28T11:40:40.503Z,35.70
2019-02-28T11:43:08.076Z,35.40
2019-02-28T11:45:37.980Z,34.60
2019-02-28T11:48:08.395Z,34.30
2019-02-28T11:50:41.333Z,34.90
2019-02-28T11:53:07.282Z,36.00
2019-02-28T11:55:35.786Z,36.10
2019-02-28T11:58:04.283Z,35.40
2019-02-28T12:00:36.942Z,35.00
2019-02-28T12:03:05.824Z,35.50
2019-02-28T12:05:34.494Z,35.20
2019-02-28T12:08:02.982Z,34.90
2019-02-28T12:10:31.470Z,33.90
2019-02-28T12:12:59.983Z,34.20
2019-02-28T12:15:31.019Z,35.00
2019-02-28T12:18:03.654Z,34.10
2019-02-28T12:20:29.678Z,34.10
2019-02-28T12:22:58.201Z,33.90
2019-02-28T12:25:26.806Z,33.90
2019-02-28T12:27:55.343Z,33.00
2019-02-28T12:30:29.106Z,32.70
2019-02-28T12:32:57.614Z,33.40
2019-02-28T12:35:26.127Z,33.30
2019-02-28T12:37:55.035Z,33.50
2019-02-28T12:40:29.682Z,33.90
2019-02-28T12:42:58.235Z,33.00
2019-02-28T12:45:29.521Z,32.50
2019-02-28T12:47:58.015Z,32.60
2019-02-28T12:50:29.440Z,32.40
2019-02-28T12:52:57.018Z,32.20
2019-02-28T12:55:25.728Z,31.60
2019-02-28T12:57:54.788Z,31.10
2019-02-28T13:00:27.420Z,32.30
2019-02-28T13:02:56.067Z,31.70
2019-02-28T13:05:24.755Z,30.50
2019-02-28T13:07:53.381Z,30.80
2019-02-28T13:10:26.845Z,31.70
2019-02-28T13:12:53.297Z,32.20
2019-02-28T13:15:23.030Z,33.00
2019-02-28T13:17:51.510Z,32.20
2019-02-28T13:20:22.712Z,31.40
2019-02-28T13:22:51.311Z,30.70
2019-02-28T13:25:23.502Z,31.30
2019-02-28T13:27:50.402Z,30.80
2019-02-28T13:30:20.849Z,30.20
2019-02-28T13:32:49.427Z,29.90
2019-02-28T13:35:23.739Z,30.00
2019-02-28T13:37:52.449Z,29.50
2019-02-28T13:40:22.251Z,29.30
2019-02-28T13:42:50.973Z,28.40
2019-02-28T13:45:23.116Z,28.10
2019-02-28T13:47:50.862Z,28.40
2019-02-28T13:50:25.723Z,29.50
2019-02-28T13:52:55.219Z,28.90
2019-02-28T13:55:23.742Z,29.00
2019-02-28T13:57:52.299Z,28.70
2019-02-28T14:00:22.836Z,28.30
2019-02-28T14:02:53.163Z,29.10
2019-02-28T14:05:21.853Z,28.30
2019-02-28T14:07:50.311Z,27.70
2019-02-28T14:10:19.438Z,27.40
2019-02-28T14:12:48.504Z,25.70
2019-02-28T14:15:19.741Z,26.40
2019-02-28T14:17:48.287Z,27.40
2019-02-28T14:20:16.773Z,28.70
2019-02-28T14:22:45.796Z,28.50
2019-02-28T14:25:15.190Z,28.80
2019-02-28T14:27:43.730Z,28.20
2019-02-28T14:30:14.389Z,27.60
2019-02-28T14:32:44.093Z,27.40
2019-02-28T14:35:16.289Z,26.90
2019-02-28T14:37:44.831Z,26.30
2019-02-28T14:40:14.661Z,26.20
2019-02-28T14:42:45.987Z,27.00
2019-02-28T14:45:28.868Z,26.70
2019-02-28T14:47:57.543Z,26.90
2019-02-28T14:50:26.062Z,27.30
2019-02-28T14:52:56.761Z,28.00
2019-02-28T14:55:29.233Z,27.40
2019-02-28T14:57:57.094Z,27.20
2019-02-28T15:00:30.513Z,27.60
2019-02-28T15:02:59.371Z,27.70
2019-02-28T15:05:31.105Z,27.10
2019-02-28T15:07:59.597Z,27.20
2019-02-28T15:10:29.616Z,27.30
2019-02-28T15:12:59.848Z,27.50
2019-02-28T15:15:28.587Z,27.30
2019-02-28T15:17:58.706Z,27.50
2019-02-28T15:20:31.781Z,27.00
2019-02-28T15:22:59.606Z,28.10
2019-02-28T15:25:29.693Z,28.10
2019-02-28T15:27:58.224Z,27.60
2019-02-28T15:30:34.981Z,27.80
2019-02-28T15:33:03.623Z,27.80
2019-02-28T15:35:32.080Z,28.10
2019-02-28T15:38:00.583Z,28.90
2019-02-28T15:40:35.031Z,29.80
2019-02-28T15:43:03.595Z,30.80
2019-02-28T15:45:32.074Z,30.70
2019-02-28T15:48:00.664Z,31.40
2019-02-28T15:50:29.186Z,32.20
2019-02-28T15:52:57.811Z,33.00
2019-02-28T15:55:26.298Z,32.40
2019-02-28T15:57:54.815Z,32.10
2019-02-28T16:00:28.522Z,32.30
2019-02-28T16:02:57.322Z,31.60
2019-02-28T16:05:25.814Z,32.00
2019-02-28T16:07:54.466Z,33.00
2019-02-28T16:10:31.853Z,34.40
2019-02-28T16:13:02.067Z,36.10
2019-02-28T16:15:30.580Z,37.30
2019-02-28T16:17:59.072Z,38.20
2019-02-28T16:20:28.642Z,38.50
2019-02-28T16:22:57.767Z,39.60
2019-02-28T16:25:38.335Z,40.20
2019-02-28T16:28:08.764Z,40.50
2019-02-28T16:30:38.358Z,41.50
2019-02-28T16:33:06.835Z,42.10
2019-02-28T16:35:35.346Z,42.70
2019-02-28T16:38:06.452Z,42.40
2019-02-28T16:40:33.973Z,43.50
2019-02-28T16:43:02.458Z,43.10
2019-02-28T16:45:32.669Z,44.00
2019-02-28T16:48:03.024Z,44.50
2019-02-28T16:50:31.692Z,46.00
2019-02-28T16:53:00.252Z,46.50
2019-02-28T16:55:31.029Z,46.50
2019-02-28T16:57:58.890Z,46.80
2019-02-28T17:00:27.464Z,47.00
2019-02-28T17:02:55.969Z,47.10
2019-02-28T17:05:28.115Z,47.70
2019-02-28T17:07:54.705Z,47.90
2019-02-28T17:10:36.556Z,47.40
2019-02-28T17:13:12.837Z,48.10
2019-02-28T17:15:48.933Z,48.00
2019-02-28T17:18:22.553Z,48.60
2019-02-28T17:20:51.163Z,49.40
2019-02-28T17:23:19.671Z,49.80
2019-02-28T17:25:48.175Z,50.40
2019-02-28T17:28:18.312Z,50.80
2019-02-28T17:30:48.481Z,49.70
2019-02-28T17:33:17.048Z,50.00
2019-02-28T17:35:45.555Z,50.60
2019-02-28T17:38:14.068Z,50.50
2019-02-28T17:40:42.571Z,50.40
2019-02-28T17:43:11.079Z,50.80
2019-02-28T17:45:39.670Z,50.10
2019-02-28T17:48:26.295Z,50.10
2019-02-28T17:51:09.866Z,50.20
2019-02-28T17:53:42.036Z,50.10
2019-02-28T17:56:44.775Z,50.20
2019-02-28T17:59:28.475Z,50.60
2019-02-28T18:02:11.880Z,50.00
2019-02-28T18:04:52.228Z,49.80
2019-02-28T18:07:29.873Z,49.80
2019-02-28T18:10:13.449Z,49.80
2019-02-28T18:12:53.051Z,50.10
2019-02-28T18:15:24.621Z,50.20
2019-02-28T18:18:05.291Z,50.50
2019-02-28T18:20:41.633Z,50.80
2019-02-28T18:23:32.854Z,51.00
2019-02-28T18:26:25.785Z,51.60
2019-02-28T18:29:15.534Z,51.90
2019-02-28T18:31:44.067Z,52.10
2019-02-28T18:34:12.552Z,52.30
2019-02-28T18:36:44.212Z,52.50
2019-02-28T18:39:12.802Z,52.80
2019-02-28T18:41:42.245Z,52.80
2019-02-28T18:44:11.593Z,52.70
2019-02-28T18:46:40.077Z,52.90
2019-02-28T18:49:08.679Z,53.00
2019-02-28T18:51:37.187Z,53.60
2019-02-28T18:54:05.693Z,53.80
2019-02-28T18:56:34.247Z,54.00
2019-02-28T18:59:04.368Z,54.20
2019-02-28T19:01:32.898Z,54.40
2019-02-28T19:04:01.424Z,54.60
2019-02-28T19:06:29.913Z,54.60
2019-02-28T19:08:58.616Z,54.70
2019-02-28T19:11:27.349Z,54.40
2019-02-28T19:13:56.038Z,54.30
2019-02-28T19:16:24.597Z,54.30
2019-02-28T19:18:53.126Z,54.40
2019-02-28T19:21:21.705Z,54.60
2019-02-28T19:23:50.248Z,54.90
2019-02-28T19:26:18.774Z,55.00
2019-02-28T19:28:47.277Z,55.20
2019-02-28T19:31:15.759Z,54.90
2019-02-28T19:33:44.253Z,54.70
2019-02-28T19:36:12.806Z,54.70
2019-02-28T19:38:42.488Z,55.10
2019-02-28T19:41:11.034Z,55.30
2019-02-28T19:43:39.616Z,55.80
2019-02-28T19:46:08.256Z,56.10
2019-02-28T19:48:36.784Z,56.30
2019-02-28T19:51:05.378Z,56.40
2019-02-28T19:53:33.915Z,56.40
2019-02-28T19:56:02.415Z,56.50
2019-02-28T19:58:30.900Z,56.80
2019-02-28T20:00:59.493Z,56.90
2019-02-28T20:03:28.006Z,56.70
2019-02-28T20:05:56.567Z,56.80
2019-02-28T20:08:25.419Z,56.70
2019-02-28T20:10:53.919Z,56.60
2019-02-28T20:13:22.410Z,56.90
2019-02-28T20:15:50.980Z,57.00
2019-02-28T20:18:19.517Z,57.30
2019-02-28T20:20:47.997Z,57.20
2019-02-28T20:23:16.575Z,57.10
2019-02-28T20:25:45.086Z,57.30
2019-02-28T20:28:15.449Z,57.30
2019-02-28T20:30:43.919Z,57.50
2019-02-28T20:33:12.464Z,57.70
2019-02-28T20:35:40.993Z,57.90
2019-02-28T20:38:09.567Z,57.90
2019-02-28T20:40:38.556Z,58.00
2019-02-28T20:43:07.036Z,57.80
2019-02-28T20:45:35.658Z,57.60
2019-02-28T20:48:04.367Z,57.80
2019-02-28T20:50:41.933Z,57.70
2019-02-28T20:53:10.458Z,57.80
2019-02-28T20:55:39.154Z,58.10
2019-02-28T20:58:07.664Z,58.10
2019-02-28T21:00:36.140Z,57.70
2019-02-28T21:03:04.811Z,57.70
2019-02-28T21:05:33.292Z,58.00
2019-02-28T21:08:01.897Z,58.20
2019-02-28T21:10:30.478Z,58.10
2019-02-28T21:12:58.975Z,57.90
2019-02-28T21:15:27.474Z,58.00
2019-02-28T21:17:55.966Z,57.80
2019-02-28T21:20:24.468Z,57.70
2019-02-28T21:22:52.958Z,58.00
2019-02-28T21:25:21.468Z,58.20
2019-02-28T21:27:50.059Z,59.10
2019-02-28T21:30:21.168Z,58.40
2019-02-28T21:32:49.843Z,58.40
2019-02-28T21:35:18.356Z,58.20
2019-02-28T21:37:47.897Z,58.30
2019-02-28T21:40:18.965Z,58.30
2019-02-28T21:42:47.640Z,58.30
2019-02-28T21:45:21.174Z,59.20
2019-02-28T21:47:49.672Z,59.10
2019-02-28T21:50:18.250Z,59.40
2019-02-28T21:52:46.743Z,59.40
2019-02-28T21:55:18.412Z,59.70
2019-02-28T21:57:46.989Z,60.30
2019-02-28T22:00:24.206Z,60.90
2019-02-28T22:02:52.754Z,61.40
2019-02-28T22:05:21.232Z,61.90
2019-02-28T22:07:49.702Z,62.30
2019-02-28T22:10:18.204Z,62.40
2019-02-28T22:12:46.685Z,62.00
2019-02-28T22:15:22.163Z,61.70
2019-02-28T22:17:50.746Z,61.50
2019-02-28T22:20:19.306Z,62.50
2019-02-28T22:22:47.773Z,63.20
2019-02-28T22:25:16.728Z,63.90
2019-02-28T22:27:45.289Z,64.40
2019-02-28T22:30:39.666Z,64.50
2019-02-28T22:33:10.094Z,64.60
2019-02-28T22:35:40.272Z,65.20
2019-02-28T22:38:08.767Z,64.90
2019-02-28T22:40:37.331Z,65.10
2019-02-28T22:43:05.990Z,65.50
2019-02-28T22:45:34.533Z,64.80
2019-02-28T22:48:03.044Z,64.10
2019-02-28T22:50:31.602Z,63.80
2019-02-28T22:53:00.094Z,64.40
2019-02-28T22:55:28.674Z,64.50
2019-02-28T22:57:57.156Z,64.50
2019-02-28T23:00:30.583Z,64.80
2019-02-28T23:02:59.120Z,65.10
2019-02-28T23:05:27.946Z,65.00
2019-02-28T23:07:57.321Z,65.10
2019-02-28T23:10:26.036Z,65.40
2019-02-28T23:12:54.961Z,65.60
2019-02-28T23:15:23.611Z,65.80
2019-02-28T23:17:52.283Z,66.50
2019-02-28T23:20:20.968Z,67.60
2019-02-28T23:22:49.563Z,68.30
2019-02-28T23:25:18.106Z,68.80
2019-02-28T23:27:46.685Z,69.10
2019-02-28T23:30:21.496Z,69.10
2019-02-28T23:32:56.476Z,69.40
2019-02-28T23:35:28.609Z,69.70
2019-02-28T23:37:57.106Z,70.30
2019-02-28T23:40:25.612Z,70.10
2019-02-28T23:42:54.124Z,70.20
2019-02-28T23:45:22.617Z,70.40
2019-02-28T23:47:52.819Z,70.30
2019-02-28T23:50:21.488Z,69.90
2019-02-28T23:52:49.979Z,69.20
2019-02-28T23:55:18.469Z,68.60
2019-02-28T23:57:47.034Z,67.80
